Time;durP1;ratioP1;P1;durP2;ratioP2;P2;SDS_P1;SDS_P2;PMS_P1;PMS_P2;Temp;Humidity;BMP_temperature;BMP_pressure;BME280_temperature;BME280_humidity;BME280_pressure;Samples;Min_cycle;Max_cycle;Signal;HPM_P1;HPM_P2
2023/03/12 00:01:13;;;;;;;6.47;4.25;;;;;1.30;98117.00;;;;5094377;28;20069;-61
2023/03/12 00:03:40;;;;;;;10.05;4.65;;;;;1.30;98108.00;;;;5095003;28;20110;-59
2023/03/12 00:06:07;;;;;;;8.80;4.15;;;;;1.30;98108.00;;;;5094869;28;20101;-61
2023/03/12 00:08:36;;;;;;;7.35;4.25;;;;;1.30;98114.00;;;;5093770;28;20044;-60
2023/03/12 00:11:08;;;;;;;9.45;4.70;;;;;1.40;98100.00;;;;5094358;28;20066;-61
2023/03/12 00:13:35;;;;;;;7.75;3.60;;;;;1.30;98107.00;;;;5094875;28;20056;-61
2023/03/12 00:16:12;;;;;;;7.45;3.72;;;;;1.20;98095.00;;;;5094769;28;20044;-60
2023/03/12 00:18:41;;;;;;;8.02;4.07;;;;;1.20;98099.00;;;;5093523;28;20040;-60
2023/03/12 00:21:08;;;;;;;10.23;4.30;;;;;1.30;98096.00;;;;5092688;28;20042;-61
2023/03/12 00:23:35;;;;;;;8.10;4.10;;;;;1.30;98101.00;;;;5094622;28;20090;-60
2023/03/12 00:26:05;;;;;;;7.72;4.30;;;;;1.40;98101.00;;;;5094241;28;20101;-60
2023/03/12 00:28:32;;;;;;;6.72;4.03;;;;;1.50;98097.00;;;;5094371;28;20059;-61
2023/03/12 00:30:58;;;;;;;11.13;3.72;;;;;1.40;98087.00;;;;5092435;28;20558;-60
2023/03/12 00:33:26;;;;;;;5.15;3.58;;;;;1.40;98089.00;;;;5076637;28;20130;-60
2023/03/12 00:35:52;;;;;;;10.68;3.55;;;;;1.50;98105.00;;;;5094311;28;20454;-60
2023/03/12 00:38:19;;;;;;;9.77;4.03;;;;;1.50;98098.00;;;;5094451;28;20048;-57
2023/03/12 00:40:47;;;;;;;8.55;4.15;;;;;1.30;98091.00;;;;5092200;28;20040;-57
2023/03/12 00:43:13;;;;;;;5.82;3.53;;;;;1.20;98099.00;;;;5094661;28;20040;-58
2023/03/12 00:45:40;;;;;;;8.18;4.35;;;;;1.10;98095.00;;;;5093922;28;20051;-58
2023/03/12 00:48:07;;;;;;;5.88;3.55;;;;;1.20;98103.00;;;;5094074;28;20109;-58
2023/03/12 00:50:33;;;;;;;5.18;2.95;;;;;1.20;98094.00;;;;5094101;28;20043;-57
2023/03/12 00:53:00;;;;;;;7.97;3.55;;;;;1.20;98095.00;;;;5095769;28;20044;-60
2023/03/12 00:55:26;;;;;;;5.30;3.25;;;;;1.30;98095.00;;;;5076280;28;20052;-57
2023/03/12 00:57:53;;;;;;;8.95;4.05;;;;;1.30;98094.00;;;;5094197;28;20534;-62
2023/03/12 01:00:20;;;;;;;9.90;3.55;;;;;1.20;98095.00;;;;5093179;28;20036;-62
2023/03/12 01:02:46;;;;;;;9.32;4.38;;;;;1.10;98096.00;;;;5094566;28;20049;-61
2023/03/12 01:05:14;;;;;;;6.20;3.03;;;;;1.20;98092.00;;;;5093374;28;20101;-62
2023/03/12 01:07:40;;;;;;;6.35;2.97;;;;;1.30;98095.00;;;;5094454;28;20044;-61
2023/03/12 01:10:08;;;;;;;8.90;3.70;;;;;1.30;98098.00;;;;5093312;28;20050;-57
2023/03/12 01:12:36;;;;;;;5.43;3.47;;;;;1.30;98091.00;;;;5092947;28;20078;-56
2023/03/12 01:15:03;;;;;;;7.80;4.30;;;;;1.40;98097.00;;;;5094376;28;20040;-58
2023/03/12 01:17:29;;;;;;;6.25;3.33;;;;;1.50;98097.00;;;;5094038;28;20506;-57
2023/03/12 01:19:57;;;;;;;6.20;3.20;;;;;1.60;98099.00;;;;5092797;28;20131;-61
2023/03/12 01:22:23;;;;;;;7.00;3.80;;;;;1.60;98099.00;;;;5093265;28;20071;-63
2023/03/12 01:24:50;;;;;;;7.00;3.60;;;;;1.50;98094.00;;;;5095173;28;20043;-62
2023/03/12 01:27:17;;;;;;;6.30;3.08;;;;;1.30;98089.00;;;;5092564;28;20134;-58
2023/03/12 01:29:43;;;;;;;7.07;3.28;;;;;1.30;98089.00;;;;5092218;28;20054;-62
2023/03/12 01:32:10;;;;;;;5.32;3.05;;;;;1.20;98090.00;;;;5092556;28;20047;-61
2023/03/12 01:34:36;;;;;;;6.15;3.13;;;;;1.20;98079.00;;;;5092796;28;20043;-61
2023/03/12 01:37:03;;;;;;;7.10;3.90;;;;;1.20;98080.00;;;;5092453;28;20071;-62
2023/03/12 01:39:29;;;;;;;6.30;2.97;;;;;1.20;98080.00;;;;5091963;28;20106;-61
2023/03/12 01:41:56;;;;;;;6.55;3.63;;;;;1.30;98084.00;;;;5092191;28;20059;-56
2023/03/12 01:44:23;;;;;;;7.50;3.60;;;;;1.40;98077.00;;;;5092151;28;20101;-59
2023/03/12 01:46:49;;;;;;;6.03;3.10;;;;;1.60;98067.00;;;;5093001;28;20040;-61
2023/03/12 01:49:27;;;;;;;6.45;3.42;;;;;1.50;98065.00;;;;5092257;28;20566;-60
2023/03/12 01:51:58;;;;;;;5.47;3.00;;;;;1.40;98063.00;;;;5092253;28;20553;-62
2023/03/12 01:54:34;;;;;;;7.57;3.50;;;;;1.20;98059.00;;;;5092054;28;20044;-59
2023/03/12 01:57:03;;;;;;;5.50;3.08;;;;;1.20;98067.00;;;;5091794;28;20055;-59
2023/03/12 01:59:35;;;;;;;7.47;3.67;;;;;1.20;98063.00;;;;5074522;28;20508;-57
2023/03/12 02:02:04;;;;;;;5.03;2.97;;;;;1.20;98058.00;;;;5092182;28;20059;-58
2023/03/12 02:04:32;;;;;;;6.68;3.42;;;;;1.30;98059.00;;;;5091867;28;20036;-56
2023/03/12 02:07:04;;;;;;;7.57;3.60;;;;;1.30;98058.00;;;;5093232;28;20055;-58
2023/03/12 02:09:38;;;;;;;6.00;3.70;;;;;1.20;98055.00;;;;5093021;28;20044;-58
2023/03/12 02:12:06;;;;;;;7.95;3.28;;;;;1.30;98054.00;;;;5092222;28;20074;-56
2023/03/12 02:14:33;;;;;;;4.95;2.72;;;;;1.30;98046.00;;;;5091887;28;20147;-57
2023/03/12 02:17:00;;;;;;;8.48;3.60;;;;;1.30;98042.00;;;;5092827;28;20161;-56
2023/03/12 02:19:37;;;;;;;6.03;3.58;;;;;1.30;98035.00;;;;5092721;28;20576;-60
2023/03/12 02:22:04;;;;;;;10.68;5.00;;;;;1.30;98031.00;;;;5092925;28;20040;-61
2023/03/12 02:24:35;;;;;;;9.43;4.65;;;;;1.20;98042.00;;;;5092234;28;20040;-60
2023/03/12 02:27:04;;;;;;;9.00;4.90;;;;;1.30;98051.00;;;;5092344;28;20044;-60
2023/03/12 02:29:34;;;;;;;6.38;4.15;;;;;1.40;98043.00;;;;5090769;28;20047;-58
2023/03/12 02:32:03;;;;;;;6.53;3.60;;;;;1.50;98057.00;;;;5092292;28;20032;-60
2023/03/12 02:34:30;;;;;;;8.27;3.38;;;;;1.50;98049.00;;;;5091988;28;20056;-62
2023/03/12 02:36:56;;;;;;;4.57;3.00;;;;;1.50;98044.00;;;;5092975;28;20039;-62
2023/03/12 02:39:23;;;;;;;5.82;3.40;;;;;1.60;98046.00;;;;5091405;28;20093;-62
2023/03/12 02:41:53;;;;;;;6.40;3.65;;;;;1.70;98043.00;;;;5091092;28;20040;-61
2023/03/12 02:44:24;;;;;;;6.63;3.92;;;;;1.80;98033.00;;;;5091598;28;20048;-61
2023/03/12 02:46:54;;;;;;;9.18;3.45;;;;;1.70;98032.00;;;;5092212;28;20052;-60
2023/03/12 02:49:24;;;;;;;7.53;4.10;;;;;1.80;98032.00;;;;5092244;28;20479;-60
2023/03/12 02:51:52;;;;;;;8.23;4.00;;;;;1.80;98039.00;;;;5092689;28;20044;-61
2023/03/12 02:54:19;;;;;;;7.35;3.97;;;;;1.80;98033.00;;;;5092270;28;20530;-61
2023/03/12 02:56:47;;;;;;;7.20;4.10;;;;;1.70;98032.00;;;;5092840;28;20040;-61
2023/03/12 02:59:15;;;;;;;8.60;4.10;;;;;1.80;98028.00;;;;5092804;28;20040;-59
2023/03/12 03:01:43;;;;;;;7.05;3.88;;;;;1.80;98035.00;;;;5090842;28;20044;-61
2023/03/12 03:04:10;;;;;;;9.10;4.00;;;;;1.80;98023.00;;;;5075169;28;20546;-61
2023/03/12 03:06:40;;;;;;;8.43;3.88;;;;;1.90;98034.00;;;;5093503;28;20042;-62
2023/03/12 03:09:06;;;;;;;7.13;3.67;;;;;1.90;98032.00;;;;5094759;28;20070;-61
2023/03/12 03:11:33;;;;;;;9.35;3.58;;;;;1.90;98026.00;;;;5091838;28;20063;-61
2023/03/12 03:14:03;;;;;;;5.80;3.45;;;;;2.00;98025.00;;;;5092688;28;20048;-60
2023/03/12 03:16:30;;;;;;;8.00;3.47;;;;;2.10;98021.00;;;;5092396;28;20127;-59
2023/03/12 03:18:57;;;;;;;4.93;3.25;;;;;2.00;98018.00;;;;5092972;28;20044;-61
2023/03/12 03:21:24;;;;;;;6.95;3.00;;;;;1.90;98004.00;;;;5093623;28;20044;-61
2023/03/12 03:23:51;;;;;;;5.93;3.25;;;;;2.00;98018.00;;;;5093297;28;20052;-61
2023/03/12 03:26:20;;;;;;;6.15;3.40;;;;;2.00;98017.00;;;;5094134;28;20408;-61
2023/03/12 03:28:47;;;;;;;5.72;2.80;;;;;2.10;98021.00;;;;5094496;28;20074;-61
2023/03/12 03:31:13;;;;;;;5.93;3.35;;;;;2.20;98022.00;;;;5094884;28;20402;-61
2023/03/12 03:33:41;;;;;;;7.63;3.13;;;;;2.40;98025.00;;;;5095524;28;20136;-61
2023/03/12 03:36:13;;;;;;;5.35;2.92;;;;;2.40;98017.00;;;;5095448;28;20063;-61
2023/03/12 03:38:49;;;;;;;5.43;3.60;;;;;2.60;98026.00;;;;5096713;28;20040;-61
2023/03/12 03:41:19;;;;;;;7.07;3.20;;;;;2.60;98025.00;;;;5096151;28;20052;-61
2023/03/12 03:43:46;;;;;;;7.57;3.30;;;;;2.70;98024.00;;;;5100619;28;20493;-61
2023/03/12 03:46:15;;;;;;;6.93;2.97;;;;;2.60;98034.00;;;;5101510;28;20474;-60
2023/03/12 03:48:46;;;;;;;7.95;3.35;;;;;2.60;98029.00;;;;5100146;28;20062;-61
2023/03/12 03:51:14;;;;;;;7.72;2.97;;;;;2.60;98041.00;;;;5101314;28;20040;-61
2023/03/12 03:53:43;;;;;;;5.85;3.78;;;;;2.60;98039.00;;;;5098714;28;20500;-61
2023/03/12 03:56:15;;;;;;;4.93;3.05;;;;;2.70;98047.00;;;;5099194;28;20078;-61
2023/03/12 03:58:47;;;;;;;7.15;2.90;;;;;2.80;98047.00;;;;5098980;28;20059;-59
2023/03/12 04:01:16;;;;;;;7.72;3.78;;;;;2.80;98050.00;;;;5096769;28;20043;-60
2023/03/12 04:03:44;;;;;;;9.13;3.38;;;;;2.90;98051.00;;;;5096749;28;20040;-61
2023/03/12 04:06:11;;;;;;;5.45;2.67;;;;;2.90;98044.00;;;;5098804;28;20044;-61
2023/03/12 04:08:39;;;;;;;5.40;2.78;;;;;2.80;98051.00;;;;5097578;28;20040;-60
2023/03/12 04:11:15;;;;;;;7.40;2.83;;;;;2.70;98048.00;;;;5097281;28;20051;-60
2023/03/12 04:13:42;;;;;;;4.90;2.55;;;;;2.70;98051.00;;;;5096781;28;20048;-59
2023/03/12 04:16:11;;;;;;;6.57;2.85;;;;;2.50;98033.00;;;;5095424;28;20118;-59
2023/03/12 04:18:38;;;;;;;5.18;2.95;;;;;2.40;98027.00;;;;5094440;28;20163;-58
2023/03/12 04:21:08;;;;;;;5.07;2.45;;;;;2.50;98034.00;;;;5093266;28;20072;-58
2023/03/12 04:23:36;;;;;;;3.85;2.63;;;;;2.50;98028.00;;;;5094503;28;20056;-59
2023/03/12 04:26:04;;;;;;;10.20;2.72;;;;;2.60;98031.00;;;;5093936;28;20056;-57
2023/03/12 04:28:31;;;;;;;4.60;2.60;;;;;2.60;98026.00;;;;5093532;28;20040;-59
2023/03/12 04:31:00;;;;;;;4.75;2.90;;;;;2.50;98030.00;;;;5093061;28;20071;-60
2023/03/12 04:33:35;;;;;;;4.85;2.60;;;;;2.60;98024.00;;;;5093931;28;20044;-59
2023/03/12 04:36:03;;;;;;;4.55;2.60;;;;;2.60;98007.00;;;;5095790;28;20093;-60
2023/03/12 04:38:31;;;;;;;5.20;2.53;;;;;2.50;98005.00;;;;5094844;28;20411;-60
2023/03/12 04:41:03;;;;;;;6.75;2.83;;;;;2.40;98004.00;;;;5093238;28;20130;-59
2023/03/12 04:43:31;;;;;;;6.40;2.95;;;;;2.40;97998.00;;;;5093428;28;20048;-58
2023/03/12 04:45:58;;;;;;;5.28;2.80;;;;;2.50;97998.00;;;;5093902;28;20067;-59
2023/03/12 04:48:26;;;;;;;4.38;2.92;;;;;2.40;97998.00;;;;5093375;28;20048;-60
2023/03/12 04:50:53;;;;;;;6.88;2.90;;;;;2.40;97997.00;;;;5092822;28;20075;-58
2023/03/12 04:53:20;;;;;;;5.05;2.67;;;;;2.30;97990.00;;;;5093025;28;20051;-59
2023/03/12 04:55:49;;;;;;;6.85;3.10;;;;;2.30;97985.00;;;;5093548;28;20052;-59
2023/03/12 04:58:18;;;;;;;6.82;2.95;;;;;2.10;97984.00;;;;5093343;28;20489;-57
2023/03/12 05:00:46;;;;;;;7.03;3.08;;;;;2.10;97977.00;;;;5092539;28;20076;-58
2023/03/12 05:03:13;;;;;;;4.65;3.03;;;;;2.00;97973.00;;;;5093176;28;20454;-59
2023/03/12 05:05:41;;;;;;;8.23;2.70;;;;;2.10;97969.00;;;;5092989;28;20046;-58
2023/03/12 05:08:08;;;;;;;5.32;2.50;;;;;2.10;97973.00;;;;5093041;28;20066;-58
2023/03/12 05:10:35;;;;;;;6.38;2.88;;;;;2.00;97969.00;;;;5092412;28;20139;-58
2023/03/12 05:13:01;;;;;;;5.95;2.70;;;;;1.90;97967.00;;;;5092679;28;20048;-60
2023/03/12 05:15:28;;;;;;;7.97;3.42;;;;;1.80;97964.00;;;;5092920;28;20134;-59
2023/03/12 05:17:55;;;;;;;3.63;2.60;;;;;1.90;97964.00;;;;5092892;28;20515;-58
2023/03/12 05:20:22;;;;;;;7.35;2.97;;;;;1.90;97961.00;;;;5093155;28;20058;-58
2023/03/12 05:22:49;;;;;;;3.45;2.50;;;;;2.00;97960.00;;;;5094057;28;20047;-58
2023/03/12 05:25:16;;;;;;;8.65;2.92;;;;;2.10;97960.00;;;;5093899;28;20046;-57
2023/03/12 05:27:42;;;;;;;4.43;2.60;;;;;2.10;97961.00;;;;5075966;28;20047;-59
2023/03/12 05:30:11;;;;;;;5.45;2.85;;;;;2.10;97967.00;;;;5092124;28;20508;-59
2023/03/12 05:32:38;;;;;;;5.70;2.65;;;;;2.20;97966.00;;;;5092621;28;20040;-59
2023/03/12 05:35:05;;;;;;;5.03;2.90;;;;;2.30;97954.00;;;;5092631;28;20040;-59
2023/03/12 05:37:32;;;;;;;4.53;2.95;;;;;2.30;97969.00;;;;5092992;28;20584;-59
2023/03/12 05:39:59;;;;;;;5.70;2.72;;;;;2.40;97964.00;;;;5092569;28;20048;-60
2023/03/12 05:42:26;;;;;;;5.28;2.67;;;;;2.50;97963.00;;;;5093768;28;20089;-61
2023/03/12 05:44:55;;;;;;;17.83;4.05;;;;;2.50;97966.00;;;;5093211;28;20048;-59
2023/03/12 05:47:22;;;;;;;6.20;3.10;;;;;2.40;97956.00;;;;5093858;28;20344;-60
2023/03/12 05:49:49;;;;;;;3.25;2.53;;;;;2.30;97962.00;;;;5091646;28;20431;-59
2023/03/12 05:52:16;;;;;;;5.20;3.15;;;;;2.30;97953.00;;;;5093610;28;20506;-60
2023/03/12 05:54:42;;;;;;;4.07;2.97;;;;;2.30;97955.00;;;;5091864;28;20493;-61
2023/03/12 05:57:09;;;;;;;6.65;2.70;;;;;2.30;97958.00;;;;5093309;28;20040;-60
2023/03/12 05:59:36;;;;;;;4.35;2.60;;;;;2.30;97945.00;;;;5091185;28;20075;-60
2023/03/12 06:02:04;;;;;;;5.65;3.08;;;;;2.40;97945.00;;;;5093043;28;20500;-60
2023/03/12 06:04:32;;;;;;;7.50;3.08;;;;;2.40;97945.00;;;;5091286;28;20079;-59
2023/03/12 06:06:59;;;;;;;10.27;2.92;;;;;2.30;97945.00;;;;5091442;28;20101;-59
2023/03/12 06:09:26;;;;;;;6.25;3.05;;;;;2.20;97952.00;;;;5091600;28;20044;-60
2023/03/12 06:11:52;;;;;;;5.70;3.42;;;;;2.20;97954.00;;;;5091695;28;20063;-59
2023/03/12 06:14:19;;;;;;;5.53;2.85;;;;;2.30;97960.00;;;;5091873;28;20048;-60
2023/03/12 06:16:47;;;;;;;8.48;2.97;;;;;2.50;97960.00;;;;5091594;28;20093;-60
2023/03/12 06:19:13;;;;;;;4.63;2.67;;;;;2.70;97964.00;;;;5091904;28;20044;-60
2023/03/12 06:21:42;;;;;;;5.43;3.17;;;;;2.70;97963.00;;;;5090834;28;20047;-58
2023/03/12 06:24:10;;;;;;;9.02;2.83;;;;;2.80;97971.00;;;;5093075;28;20039;-62
2023/03/12 06:26:43;;;;;;;5.28;2.70;;;;;2.90;97970.00;;;;5091757;28;20451;-59
2023/03/12 06:29:10;;;;;;;6.88;2.83;;;;;2.90;97977.00;;;;5092848;28;20051;-59
2023/03/12 06:31:38;;;;;;;9.80;3.47;;;;;3.00;97975.00;;;;5091143;28;20040;-59
2023/03/12 06:34:05;;;;;;;4.72;2.83;;;;;3.00;97973.00;;;;5092531;28;20054;-58
2023/03/12 06:36:31;;;;;;;11.77;3.63;;;;;2.90;97974.00;;;;5092253;28;20051;-58
2023/03/12 06:38:58;;;;;;;7.22;3.13;;;;;2.90;97971.00;;;;5092300;28;20089;-58
2023/03/12 06:41:24;;;;;;;7.25;3.00;;;;;3.10;97967.00;;;;5091501;28;20036;-58
2023/03/12 06:43:51;;;;;;;7.35;2.97;;;;;3.20;97972.00;;;;5092161;28;20070;-58
2023/03/12 06:46:20;;;;;;;7.95;3.72;;;;;3.30;97968.00;;;;5092232;28;20044;-58
2023/03/12 06:48:47;;;;;;;9.80;3.47;;;;;3.40;97965.00;;;;5091059;28;20088;-59
2023/03/12 06:51:15;;;;;;;6.00;3.50;;;;;3.30;97974.00;;;;5091471;28;20078;-58
2023/03/12 06:53:44;;;;;;;7.18;3.25;;;;;3.20;97982.00;;;;5092173;28;20056;-58
2023/03/12 06:56:12;;;;;;;5.22;3.25;;;;;3.30;97988.00;;;;5092564;28;20044;-58
2023/03/12 06:58:38;;;;;;;9.70;3.65;;;;;3.40;97986.00;;;;5092143;28;20047;-58
2023/03/12 07:01:06;;;;;;;8.43;3.50;;;;;3.50;97986.00;;;;5091441;28;20093;-59
2023/03/12 07:03:33;;;;;;;7.00;3.20;;;;;3.50;97979.00;;;;5090735;28;20578;-59
2023/03/12 07:05:59;;;;;;;10.63;3.75;;;;;3.60;97982.00;;;;5092035;28;20117;-59
2023/03/12 07:08:29;;;;;;;8.15;4.32;;;;;3.70;97981.00;;;;5092001;28;20036;-59
2023/03/12 07:10:57;;;;;;;5.57;3.35;;;;;3.80;97982.00;;;;5090426;28;20059;-59
2023/03/12 07:13:26;;;;;;;7.43;2.90;;;;;3.80;97977.00;;;;5092058;28;20048;-59
2023/03/12 07:15:53;;;;;;;8.48;3.90;;;;;3.80;97978.00;;;;5092059;28;20044;-59
2023/03/12 07:18:20;;;;;;;7.07;3.35;;;;;3.70;97981.00;;;;5096118;28;20130;-58
2023/03/12 07:20:46;;;;;;;5.63;3.42;;;;;3.60;97969.00;;;;5095351;28;20044;-59
2023/03/12 07:23:13;;;;;;;7.05;3.38;;;;;3.50;97978.00;;;;5094943;28;20036;-59
2023/03/12 07:25:42;;;;;;;7.10;3.15;;;;;3.40;97974.00;;;;5094545;28;20101;-59
2023/03/12 07:28:10;;;;;;;10.10;3.42;;;;;3.40;97976.00;;;;5095938;28;20496;-59
2023/03/12 07:30:37;;;;;;;6.15;3.40;;;;;3.40;97977.00;;;;5095438;28;20044;-59
2023/03/12 07:33:06;;;;;;;6.43;3.85;;;;;3.40;97990.00;;;;5095963;28;20072;-59
2023/03/12 07:35:33;;;;;;;8.23;3.78;;;;;3.50;97986.00;;;;5094509;28;20093;-59
2023/03/12 07:38:02;;;;;;;9.20;3.95;;;;;3.70;97986.00;;;;5095918;28;20051;-59
2023/03/12 07:40:29;;;;;;;7.55;4.10;;;;;3.80;97991.00;;;;5095260;28;20044;-59
2023/03/12 07:42:56;;;;;;;9.00;3.95;;;;;3.90;97998.00;;;;5094650;28;20497;-59
2023/03/12 07:45:23;;;;;;;7.80;5.00;;;;;3.90;97995.00;;;;5095777;28;20467;-58
2023/03/12 07:47:50;;;;;;;11.18;5.78;;;;;4.00;97996.00;;;;5095916;28;20054;-59
2023/03/12 07:50:17;;;;;;;6.95;5.78;;;;;4.10;97997.00;;;;5095142;28;20104;-59
2023/03/12 07:52:45;;;;;;;17.13;5.70;;;;;4.10;97992.00;;;;5095844;28;20502;-59
2023/03/12 07:55:12;;;;;;;6.18;4.50;;;;;4.20;97996.00;;;;5095561;28;20044;-60
2023/03/12 07:57:39;;;;;;;9.25;4.55;;;;;4.20;97996.00;;;;5094293;28;20050;-61
2023/03/12 08:00:08;;;;;;;7.22;4.03;;;;;4.20;97995.00;;;;5094855;28;20385;-60
2023/03/12 08:02:38;;;;;;;11.15;4.38;;;;;4.20;97991.00;;;;5094227;28;20040;-61
2023/03/12 08:05:06;;;;;;;8.13;4.82;;;;;4.30;97993.00;;;;5095181;28;20051;-61
2023/03/12 08:07:33;;;;;;;6.80;4.78;;;;;4.30;98001.00;;;;5095197;28;20127;-61
2023/03/12 08:10:02;;;;;;;8.10;5.35;;;;;4.30;98010.00;;;;5094616;28;20507;-61
2023/03/12 08:12:29;;;;;;;9.32;5.10;;;;;4.40;98001.00;;;;5095021;28;20036;-61
2023/03/12 08:14:55;;;;;;;8.80;4.53;;;;;4.30;98003.00;;;;5094974;28;20071;-60
2023/03/12 08:17:22;;;;;;;14.40;6.03;;;;;4.40;98001.00;;;;5095868;28;20369;-61
2023/03/12 08:19:48;;;;;;;7.70;5.60;;;;;4.50;97998.00;;;;5092882;28;20189;-61
2023/03/12 08:22:15;;;;;;;9.95;6.53;;;;;4.50;97996.00;;;;5094951;28;20036;-61
2023/03/12 08:24:42;;;;;;;7.63;5.53;;;;;4.60;97997.00;;;;5094787;28;20098;-62
2023/03/12 08:27:11;;;;;;;9.00;5.82;;;;;4.70;97994.00;;;;5094850;28;20047;-61
2023/03/12 08:29:38;;;;;;;8.80;4.95;;;;;4.80;97998.00;;;;5096853;28;20036;-61
2023/03/12 08:32:05;;;;;;;13.65;6.47;;;;;4.90;97997.00;;;;5101121;28;20055;-62
2023/03/12 08:34:33;;;;;;;11.45;6.05;;;;;5.00;98003.00;;;;5098656;28;20059;-60
2023/03/12 08:37:00;;;;;;;12.52;6.03;;;;;5.00;98009.00;;;;5095044;28;20119;-59
2023/03/12 08:39:26;;;;;;;10.65;6.30;;;;;5.00;98015.00;;;;5093231;28;20496;-60
2023/03/12 08:41:54;;;;;;;8.55;5.40;;;;;5.00;98008.00;;;;5092916;28;20048;-59
2023/03/12 08:44:22;;;;;;;7.55;5.30;;;;;5.00;98012.00;;;;5094592;28;20066;-59
2023/03/12 08:46:48;;;;;;;15.23;8.80;;;;;4.90;98032.00;;;;5094251;28;20054;-60
2023/03/12 08:49:15;;;;;;;9.38;5.65;;;;;5.00;98029.00;;;;5094068;28;20043;-58
2023/03/12 08:51:42;;;;;;;8.43;5.65;;;;;5.00;98029.00;;;;5093647;28;20048;-61
2023/03/12 08:54:08;;;;;;;8.25;5.63;;;;;5.10;98035.00;;;;5094447;28;20101;-61
2023/03/12 08:56:41;;;;;;;11.77;6.20;;;;;5.30;98031.00;;;;5094153;28;20047;-60
2023/03/12 08:59:12;;;;;;;11.07;6.53;;;;;5.30;98023.00;;;;5094189;28;20333;-60
2023/03/12 09:01:39;;;;;;;11.15;6.65;;;;;5.40;98026.00;;;;5094033;28;20040;-60
2023/03/12 09:04:09;;;;;;;13.00;6.25;;;;;5.30;98028.00;;;;5095415;28;20061;-62
2023/03/12 09:06:37;;;;;;;7.78;6.10;;;;;5.40;98044.00;;;;5094989;28;20044;-61
2023/03/12 09:09:04;;;;;;;11.05;7.22;;;;;5.40;98037.00;;;;5096655;28;20040;-63
2023/03/12 09:11:32;;;;;;;10.10;6.65;;;;;5.50;98047.00;;;;5092939;28;20588;-61
2023/03/12 09:13:59;;;;;;;8.82;6.70;;;;;5.40;98040.00;;;;5094505;28;20040;-60
2023/03/12 09:16:46;;;;;;;15.27;7.00;;;;;5.40;98044.00;;;;5095557;28;20062;-63
2023/03/12 09:19:13;;;;;;;13.85;7.65;;;;;5.50;98047.00;;;;5095387;28;20048;-62
2023/03/12 09:21:40;;;;;;;10.52;7.13;;;;;5.50;98045.00;;;;5094500;28;20048;-63
2023/03/12 09:24:07;;;;;;;11.43;8.05;;;;;5.60;98043.00;;;;5096938;28;20040;-63
2023/03/12 09:26:33;;;;;;;11.90;7.25;;;;;5.70;98043.00;;;;5096165;28;20052;-63
2023/03/12 09:29:00;;;;;;;8.82;6.78;;;;;5.80;98035.00;;;;5095963;28;20069;-63
2023/03/12 09:31:27;;;;;;;8.20;6.90;;;;;6.10;98043.00;;;;5093663;28;20069;-63
2023/03/12 09:33:53;;;;;;;10.35;6.88;;;;;6.20;98034.00;;;;5095272;28;20110;-62
2023/03/12 09:36:20;;;;;;;7.93;6.07;;;;;6.30;98039.00;;;;5097289;28;20052;-62
2023/03/12 09:38:46;;;;;;;12.40;7.68;;;;;6.30;98045.00;;;;5095390;28;20550;-62
2023/03/12 09:41:19;;;;;;;22.88;9.18;;;;;6.40;98048.00;;;;5094703;28;20055;-63
2023/03/12 09:44:09;;;;;;;9.18;6.55;;;;;6.50;98053.00;;;;5095009;28;20036;-62
2023/03/12 09:46:40;;;;;;;10.40;7.43;;;;;6.50;98055.00;;;;5094009;28;20097;-60
2023/03/12 09:49:16;;;;;;;9.43;7.30;;;;;6.60;98047.00;;;;5094448;28;20044;-62
2023/03/12 09:51:48;;;;;;;12.98;8.60;;;;;6.80;98062.00;;;;5093558;28;20047;-62
2023/03/12 09:54:35;;;;;;;11.40;7.32;;;;;6.80;98064.00;;;;5094240;28;20558;-62
2023/03/12 09:57:07;;;;;;;13.85;8.45;;;;;6.80;98066.00;;;;5093782;28;20044;-61
2023/03/12 09:59:35;;;;;;;10.88;7.88;;;;;7.00;98078.00;;;;5093794;28;20048;-64
2023/03/12 10:02:16;;;;;;;11.68;8.88;;;;;6.90;98083.00;;;;5094302;28;20093;-62
2023/03/12 10:04:50;;;;;;;13.68;9.32;;;;;6.80;98084.00;;;;5093632;28;20143;-62
2023/03/12 10:07:35;;;;;;;19.60;13.10;;;;;6.70;98093.00;;;;5093862;28;20074;-62
2023/03/12 10:10:28;;;;;;;13.43;9.82;;;;;6.70;98086.00;;;;5093282;28;20083;-60
2023/03/12 10:13:16;;;;;;;16.00;11.07;;;;;6.80;98092.00;;;;5082317;28;20063;-59
2023/03/12 10:16:05;;;;;;;15.68;10.10;;;;;6.80;98092.00;;;;5092918;28;20036;-59
2023/03/12 10:18:52;;;;;;;14.80;9.40;;;;;6.90;98088.00;;;;5092787;28;20051;-60
2023/03/12 10:21:42;;;;;;;12.52;8.20;;;;;6.80;98090.00;;;;5092271;28;20048;-59
2023/03/12 10:24:11;;;;;;;10.60;8.70;;;;;6.80;98099.00;;;;5092714;28;20060;-59
2023/03/12 10:26:41;;;;;;;12.35;9.45;;;;;6.80;98095.00;;;;5092553;28;20044;-59
2023/03/12 10:29:24;;;;;;;9.23;7.80;;;;;6.80;98106.00;;;;5091642;28;20332;-59
2023/03/12 10:32:10;;;;;;;14.35;10.00;;;;;6.70;98099.00;;;;5092156;28;20109;-59
2023/03/12 10:34:41;;;;;;;16.48;10.65;;;;;6.60;98110.00;;;;5091505;28;20056;-59
2023/03/12 10:37:17;;;;;;;11.18;10.05;;;;;6.70;98099.00;;;;5092881;28;20044;-58
2023/03/12 10:39:44;;;;;;;10.82;9.20;;;;;6.90;98104.00;;;;5091794;28;20052;-58
2023/03/12 10:42:22;;;;;;;10.55;8.95;;;;;7.10;98116.00;;;;5092645;28;20055;-59
2023/03/12 10:45:04;;;;;;;14.68;10.13;;;;;7.20;98113.00;;;;5091568;28;20044;-60
2023/03/12 10:47:41;;;;;;;13.38;9.63;;;;;7.30;98099.00;;;;5092875;28;20040;-60
2023/03/12 10:50:20;;;;;;;14.85;9.48;;;;;7.70;98104.00;;;;5091790;28;20477;-60
2023/03/12 10:52:49;;;;;;;13.43;9.43;;;;;7.90;98112.00;;;;5092212;28;20039;-58
2023/03/12 10:55:25;;;;;;;12.50;10.15;;;;;8.10;98113.00;;;;5092401;28;20055;-60
2023/03/12 10:57:53;;;;;;;11.60;9.45;;;;;8.10;98109.00;;;;5092339;28;20048;-59
2023/03/12 11:00:23;;;;;;;12.70;9.38;;;;;8.20;98124.00;;;;5091858;28;20451;-60
2023/03/12 11:03:04;;;;;;;10.98;8.77;;;;;8.30;98116.00;;;;5090985;28;20047;-60
2023/03/12 11:05:44;;;;;;;14.05;10.43;;;;;8.50;98117.00;;;;5092232;28;20492;-58
2023/03/12 11:08:35;;;;;;;14.15;10.77;;;;;8.80;98116.00;;;;5092200;28;20101;-60
2023/03/12 11:11:04;;;;;;;20.23;13.75;;;;;9.10;98111.00;;;;5091720;28;20282;-60
2023/03/12 11:13:33;;;;;;;17.50;11.10;;;;;9.40;98110.00;;;;5092307;28;20040;-60
2023/03/12 11:16:23;;;;;;;20.08;9.98;;;;;9.70;98114.00;;;;5092132;28;20044;-60
2023/03/12 11:18:55;;;;;;;17.00;10.35;;;;;9.80;98120.00;;;;5079580;28;20083;-59
2023/03/12 11:21:22;;;;;;;12.07;8.82;;;;;9.90;98123.00;;;;5091513;28;20048;-59
2023/03/12 11:23:55;;;;;;;13.02;8.70;;;;;10.10;98106.00;;;;5091855;28;20040;-60
2023/03/12 11:26:52;;;;;;;13.43;9.80;;;;;10.40;98115.00;;;;5091921;28;20098;-60
2023/03/12 11:29:31;;;;;;;13.75;7.20;;;;;10.50;98117.00;;;;5085462;28;20067;-60
2023/03/12 11:32:22;;;;;;;12.68;7.20;;;;;10.50;98126.00;;;;5090781;28;20048;-59
2023/03/12 11:34:49;;;;;;;15.40;7.10;;;;;10.70;98108.00;;;;5091922;28;20123;-60
2023/03/12 11:37:50;;;;;;;14.05;7.72;;;;;10.90;98109.00;;;;5091937;28;20048;-59
2023/03/12 11:40:23;;;;;;;16.20;7.22;;;;;11.10;98116.00;;;;5091283;28;20390;-59
2023/03/12 11:43:14;;;;;;;9.57;6.22;;;;;11.30;98100.00;;;;5091721;28;20040;-60
2023/03/12 11:45:48;;;;;;;13.20;5.65;;;;;11.50;98106.00;;;;5091616;28;20431;-59
2023/03/12 11:48:36;;;;;;;12.50;6.20;;;;;11.60;98092.00;;;;5091727;28;20048;-59
2023/03/12 11:51:16;;;;;;;14.27;6.47;;;;;11.80;98102.00;;;;5091005;28;20044;-59
2023/03/12 11:53:49;;;;;;;14.02;5.50;;;;;11.90;98092.00;;;;5091649;28;20044;-59
2023/03/12 11:56:42;;;;;;;12.80;5.63;;;;;12.00;98084.00;;;;5091506;28;20446;-59
2023/03/12 11:59:26;;;;;;;12.18;5.35;;;;;12.00;98098.00;;;;5080913;28;20554;-59
2023/03/12 12:02:11;;;;;;;13.93;6.07;;;;;12.00;98091.00;;;;5091747;28;20414;-60
2023/03/12 12:05:02;;;;;;;14.93;5.68;;;;;12.10;98088.00;;;;5094211;28;20048;-59
2023/03/12 12:07:43;;;;;;;9.88;5.15;;;;;12.20;98102.00;;;;5095290;28;20040;-59
2023/03/12 12:10:37;;;;;;;18.05;6.60;;;;;12.20;98115.00;;;;5094903;28;20396;-59
2023/03/12 12:13:15;;;;;;;14.45;5.13;;;;;12.20;98125.00;;;;5095112;28;20369;-59
2023/03/12 12:15:55;;;;;;;16.95;5.55;;;;;12.10;98111.00;;;;5093955;28;20107;-60
2023/03/12 12:19:12;;;;;;;19.20;5.43;;;;;12.20;98097.00;;;;5095075;28;20484;-59
2023/03/12 12:21:57;;;;;;;11.02;4.97;;;;;12.40;98107.00;;;;5089788;28;20058;-60
2023/03/12 12:24:34;;;;;;;13.52;4.95;;;;;12.40;98093.00;;;;5095236;28;20127;-61
2023/03/12 12:27:23;;;;;;;15.98;5.15;;;;;12.40;98100.00;;;;5095250;28;20048;-61
2023/03/12 12:30:21;;;;;;;14.85;5.05;;;;;12.40;98097.00;;;;5095128;28;20089;-58
2023/03/12 12:33:18;;;;;;;12.73;4.82;;;;;12.50;98096.00;;;;5096556;28;20044;-61
2023/03/12 12:35:45;;;;;;;16.95;4.57;;;;;12.60;98096.00;;;;5095534;28;20461;-61
2023/03/12 12:38:14;;;;;;;13.02;5.13;;;;;12.60;98087.00;;;;5095570;28;20052;-61
2023/03/12 12:40:52;;;;;;;12.32;4.15;;;;;12.80;98064.00;;;;5094981;28;20109;-61